Time;durP1;ratioP1;P1;durP2;ratioP2;P2;SDS_P1;SDS_P2;PMS_P1;PMS_P2;Temp;Humidity;BMP_temperature;BMP_pressure;BME280_temperature;BME280_humidity;BME280_pressure;Samples;Min_cycle;Max_cycle;Signal;HPM_P1;HPM_P2
2022/10/13 00:01:11;;;;;;;;;;;10.90;99.90;;;;;;5082474;28;19921;-71
2022/10/13 00:03:38;;;;;;;;;;;10.90;99.90;;;;;;5082689;28;20103;-71
2022/10/13 00:06:05;;;;;;;;;;;10.90;99.90;;;;;;5082162;28;19912;-71
2022/10/13 00:08:31;;;;;;;;;;;10.80;99.90;;;;;;5082548;28;19909;-71
2022/10/13 00:10:59;;;;;;;;;;;10.80;99.90;;;;;;5082545;28;19916;-71
2022/10/13 00:13:26;;;;;;;;;;;10.80;99.90;;;;;;5082372;28;19916;-70
2022/10/13 00:15:51;;;;;;;;;;;10.70;99.90;;;;;;5082504;28;20108;-70
2022/10/13 00:18:17;;;;;;;;;;;10.70;99.90;;;;;;5082220;28;19915;-69
2022/10/13 00:20:47;;;;;;;;;;;10.70;99.90;;;;;;5082217;28;19912;-70
2022/10/13 00:23:13;;;;;;;;;;;10.60;99.90;;;;;;5082403;28;19920;-69
2022/10/13 00:25:42;;;;;;;;;;;10.60;99.90;;;;;;5082480;28;19983;-70
2022/10/13 00:28:08;;;;;;;;;;;10.60;99.90;;;;;;5081399;28;19916;-70
2022/10/13 00:30:34;;;;;;;;;;;10.60;99.90;;;;;;5086667;28;19916;-70
2022/10/13 00:33:00;;;;;;;;;;;10.60;99.90;;;;;;5086503;28;19946;-70
2022/10/13 00:35:26;;;;;;;;;;;10.50;99.90;;;;;;5086180;28;20115;-70
2022/10/13 00:37:52;;;;;;;;;;;10.50;99.90;;;;;;5085978;28;19912;-70
2022/10/13 00:40:18;;;;;;;;;;;10.50;99.90;;;;;;5085859;28;19935;-70
2022/10/13 00:42:43;;;;;;;;;;;10.30;99.90;;;;;;5086283;28;20215;-70
2022/10/13 00:45:21;;;;;;;;;;;10.30;99.90;;;;;;5086016;28;19923;-71
2022/10/13 00:47:49;;;;;;;;;;;10.30;99.90;;;;;;5085813;28;19931;-71
2022/10/13 00:50:20;;;;;;;;;;;10.30;99.90;;;;;;5084774;28;19991;-70
2022/10/13 00:52:46;;;;;;;;;;;10.30;99.90;;;;;;5084363;28;19908;-71
2022/10/13 00:55:12;;;;;;;;;;;10.40;99.90;;;;;;5068160;28;19915;-70
2022/10/13 00:57:39;;;;;;;;;;;10.30;99.90;;;;;;5084475;28;19954;-70
2022/10/13 01:00:05;;;;;;;;;;;10.30;99.90;;;;;;5085821;28;19956;-70
2022/10/13 01:02:33;;;;;;;;;;;10.30;99.90;;;;;;5084904;28;19936;-70
2022/10/13 01:04:59;;;;;;;;;;;10.30;99.90;;;;;;5084554;28;19916;-70
2022/10/13 01:07:25;;;;;;;;;;;10.20;99.90;;;;;;5084219;28;20153;-70
2022/10/13 01:09:50;;;;;;;;;;;10.10;99.90;;;;;;5085892;28;19936;-70
2022/10/13 01:12:31;;;;;;;;;;;10.00;99.90;;;;;;5085685;28;19946;-71
2022/10/13 01:15:13;;;;;;;;;;;10.00;99.90;;;;;;5084639;28;19908;-70
2022/10/13 01:17:46;;;;;;;;;;;10.00;99.90;;;;;;5068230;28;20215;-70
2022/10/13 01:20:50;;;;;;;;;;;10.10;99.90;;;;;;5084085;28;20150;-70
2022/10/13 01:23:21;;;;;;;;;;;10.10;99.90;;;;;;5084514;28;19915;-70
2022/10/13 01:25:47;;;;;;;;;;;10.10;99.90;;;;;;5085460;28;19908;-71
2022/10/13 01:28:27;;;;;;;;;;;10.10;99.90;;;;;;5085027;28;19966;-71
2022/10/13 01:31:05;;;;;;;;;;;10.10;99.90;;;;;;5084288;28;19916;-71
2022/10/13 01:33:43;;;;;;;;;;;10.10;99.90;;;;;;5084268;28;19915;-70
2022/10/13 01:36:40;;;;;;;;;;;10.10;99.90;;;;;;5083768;28;19908;-70
2022/10/13 01:39:09;;;;;;;;;;;10.10;99.90;;;;;;5083787;28;19948;-70
2022/10/13 01:41:40;;;;;;;;;;;10.10;99.90;;;;;;5084002;28;19934;-70
2022/10/13 01:44:25;;;;;;;;;;;10.10;99.90;;;;;;5067540;28;19908;-71
2022/10/13 01:46:54;;;;;;;;;;;10.10;99.90;;;;;;5084819;28;20183;-71
2022/10/13 01:49:22;;;;;;;;;;;10.10;99.90;;;;;;5083880;28;20316;-70
2022/10/13 01:51:48;;;;;;;;;;;10.00;99.90;;;;;;5083543;28;19916;-70
2022/10/13 01:54:14;;;;;;;;;;;10.00;99.90;;;;;;5084941;28;20207;-70
2022/10/13 01:56:39;;;;;;;;;;;10.00;99.90;;;;;;5084653;28;19954;-70
2022/10/13 01:59:12;;;;;;;;;;;10.00;99.90;;;;;;5084772;28;19908;-70
2022/10/13 02:02:02;;;;;;;;;;;10.00;99.90;;;;;;5083683;28;19912;-71
2022/10/13 02:04:59;;;;;;;;;;;10.00;99.90;;;;;;5083293;28;19972;-70
2022/10/13 02:07:37;;;;;;;;;;;10.10;99.90;;;;;;5079459;28;19912;-70
2022/10/13 02:10:22;;;;;;;;;;;10.20;99.90;;;;;;5078081;28;19915;-71
2022/10/13 02:12:50;;;;;;;;;;;10.20;99.90;;;;;;5083395;28;19912;-70
2022/10/13 02:15:21;;;;;;;;;;;10.20;99.90;;;;;;5083441;28;19908;-70
2022/10/13 02:17:47;;;;;;;;;;;10.30;99.90;;;;;;5083182;28;19916;-71
2022/10/13 02:20:12;;;;;;;;;;;10.30;99.90;;;;;;5084185;28;19912;-71
2022/10/13 02:22:41;;;;;;;;;;;10.40;99.90;;;;;;5083099;28;19916;-71
2022/10/13 02:25:07;;;;;;;;;;;10.40;99.90;;;;;;5066739;28;19915;-71
2022/10/13 02:27:32;;;;;;;;;;;10.40;99.90;;;;;;5084075;28;19908;-70
2022/10/13 02:29:58;;;;;;;;;;;10.40;99.90;;;;;;5084231;28;19916;-70
2022/10/13 02:32:24;;;;;;;;;;;10.50;99.90;;;;;;5083085;28;19934;-71
2022/10/13 02:34:49;;;;;;;;;;;10.50;99.90;;;;;;5082835;28;19908;-71
2022/10/13 02:37:15;;;;;;;;;;;10.50;99.90;;;;;;5075665;28;19912;-71
2022/10/13 02:39:41;;;;;;;;;;;10.50;99.90;;;;;;5083899;28;19948;-71
2022/10/13 02:42:07;;;;;;;;;;;10.50;99.90;;;;;;5084002;28;19916;-70
2022/10/13 02:44:33;;;;;;;;;;;10.50;99.90;;;;;;5083970;28;19916;-70
2022/10/13 02:46:58;;;;;;;;;;;10.50;99.90;;;;;;5083562;28;19984;-70
2022/10/13 02:49:24;;;;;;;;;;;10.40;99.90;;;;;;5083865;28;19908;-70
2022/10/13 02:51:50;;;;;;;;;;;10.40;99.90;;;;;;5081727;28;19908;-70
2022/10/13 02:54:15;;;;;;;;;;;10.40;99.90;;;;;;5083712;28;19924;-70
2022/10/13 02:56:41;;;;;;;;;;;10.30;99.90;;;;;;5083440;28;19908;-70
2022/10/13 02:59:07;;;;;;;;;;;10.40;99.90;;;;;;5083676;28;19975;-70
2022/10/13 03:01:32;;;;;;;;;;;10.30;99.90;;;;;;5083583;28;19924;-71
2022/10/13 03:03:58;;;;;;;;;;;10.30;99.90;;;;;;5083758;28;19943;-70
2022/10/13 03:06:24;;;;;;;;;;;10.30;99.90;;;;;;5083069;28;20211;-70
2022/10/13 03:08:50;;;;;;;;;;;10.20;99.90;;;;;;5083461;28;19946;-70
2022/10/13 03:11:15;;;;;;;;;;;10.20;99.90;;;;;;5083497;28;19975;-71
2022/10/13 03:13:41;;;;;;;;;;;10.10;99.90;;;;;;5083329;28;19909;-70
2022/10/13 03:16:07;;;;;;;;;;;10.10;99.90;;;;;;5081798;28;19931;-71
2022/10/13 03:18:33;;;;;;;;;;;10.10;99.90;;;;;;5083067;28;19908;-71
2022/10/13 03:21:00;;;;;;;;;;;10.00;99.90;;;;;;5082940;28;19928;-70
2022/10/13 03:23:25;;;;;;;;;;;10.00;99.90;;;;;;5082007;28;19912;-71
2022/10/13 03:25:51;;;;;;;;;;;10.00;99.90;;;;;;5082219;28;20108;-70
2022/10/13 03:28:17;;;;;;;;;;;10.00;99.90;;;;;;5082776;28;20178;-70
2022/10/13 03:30:43;;;;;;;;;;;10.00;99.90;;;;;;5083221;28;20218;-70
2022/10/13 03:33:08;;;;;;;;;;;10.00;99.90;;;;;;5083040;28;20215;-70
2022/10/13 03:35:35;;;;;;;;;;;10.00;99.90;;;;;;5082833;28;20138;-71
2022/10/13 03:38:01;;;;;;;;;;;10.00;99.90;;;;;;5082440;28;20138;-70
2022/10/13 03:40:27;;;;;;;;;;;10.00;99.90;;;;;;5082829;28;19950;-71
2022/10/13 03:42:53;;;;;;;;;;;10.00;99.90;;;;;;5082929;28;19912;-71
2022/10/13 03:45:18;;;;;;;;;;;10.00;99.90;;;;;;5082740;28;19923;-71
2022/10/13 03:47:44;;;;;;;;;;;10.00;99.90;;;;;;5082422;28;19972;-71
2022/10/13 03:50:10;;;;;;;;;;;10.00;99.90;;;;;;5082456;28;19917;-71
2022/10/13 03:52:35;;;;;;;;;;;10.00;99.90;;;;;;5081554;28;19916;-70
2022/10/13 03:55:01;;;;;;;;;;;10.00;99.90;;;;;;5082759;28;20010;-70
2022/10/13 03:57:27;;;;;;;;;;;10.10;99.90;;;;;;5082386;28;19916;-71
2022/10/13 03:59:55;;;;;;;;;;;10.10;99.90;;;;;;5082687;28;19920;-71
2022/10/13 04:02:21;;;;;;;;;;;10.10;99.90;;;;;;5082356;28;20207;-70
2022/10/13 04:04:46;;;;;;;;;;;10.20;99.90;;;;;;5082381;28;19912;-70
2022/10/13 04:07:12;;;;;;;;;;;10.20;99.90;;;;;;5081847;28;20230;-70
2022/10/13 04:09:38;;;;;;;;;;;10.20;99.90;;;;;;5082526;28;19939;-70
2022/10/13 04:12:03;;;;;;;;;;;10.30;99.90;;;;;;5082520;28;19969;-70
2022/10/13 04:14:29;;;;;;;;;;;10.30;99.90;;;;;;5082515;28;19909;-70
2022/10/13 04:16:55;;;;;;;;;;;10.30;99.90;;;;;;5078872;28;19916;-71
2022/10/13 04:19:21;;;;;;;;;;;10.30;99.90;;;;;;5076531;28;19945;-70
2022/10/13 04:21:46;;;;;;;;;;;10.30;99.90;;;;;;5080030;28;19928;-71
2022/10/13 04:24:12;;;;;;;;;;;10.30;99.90;;;;;;5079828;28;19924;-70
2022/10/13 04:26:38;;;;;;;;;;;10.40;99.90;;;;;;5081677;28;19920;-71
2022/10/13 04:29:04;;;;;;;;;;;10.40;99.90;;;;;;5075207;28;19927;-70
2022/10/13 04:31:29;;;;;;;;;;;10.40;99.90;;;;;;5076310;28;19951;-71
2022/10/13 04:33:55;;;;;;;;;;;10.50;99.90;;;;;;5080576;28;19920;-71
2022/10/13 04:36:21;;;;;;;;;;;10.50;99.90;;;;;;5081562;28;19914;-71
2022/10/13 04:38:47;;;;;;;;;;;10.50;99.90;;;;;;5078118;28;20230;-70
2022/10/13 04:41:13;;;;;;;;;;;10.50;99.90;;;;;;5081988;28;19986;-70
2022/10/13 04:43:39;;;;;;;;;;;10.50;99.90;;;;;;5082162;28;19940;-70
2022/10/13 04:46:08;;;;;;;;;;;10.50;99.90;;;;;;5082012;28;19923;-71
2022/10/13 04:48:34;;;;;;;;;;;10.50;99.90;;;;;;5080857;28;19974;-70
2022/10/13 04:51:04;;;;;;;;;;;10.50;99.90;;;;;;5081758;28;19967;-71
2022/10/13 04:53:30;;;;;;;;;;;10.50;99.90;;;;;;5082047;28;20146;-70
2022/10/13 04:55:58;;;;;;;;;;;10.50;99.90;;;;;;5080882;28;19995;-71
2022/10/13 04:58:24;;;;;;;;;;;10.50;99.90;;;;;;5080725;28;19923;-70
2022/10/13 05:00:50;;;;;;;;;;;10.50;99.90;;;;;;5081946;28;19992;-70
2022/10/13 05:03:15;;;;;;;;;;;10.50;99.90;;;;;;5082006;28;19908;-71
2022/10/13 05:05:42;;;;;;;;;;;10.60;99.90;;;;;;5081610;28;20103;-70
2022/10/13 05:08:07;;;;;;;;;;;10.60;99.90;;;;;;5081498;28;19909;-70
2022/10/13 05:10:33;;;;;;;;;;;10.60;99.90;;;;;;5081803;28;19984;-71
2022/10/13 05:12:59;;;;;;;;;;;10.60;99.90;;;;;;5081762;28;19951;-70
2022/10/13 05:15:25;;;;;;;;;;;10.60;99.90;;;;;;5084194;28;19972;-71
2022/10/13 05:17:50;;;;;;;;;;;10.60;99.90;;;;;;5085116;28;19909;-70
2022/10/13 05:20:16;;;;;;;;;;;10.70;99.90;;;;;;5085036;28;19919;-71
2022/10/13 05:22:42;;;;;;;;;;;10.60;99.90;;;;;;5085366;28;19908;-70
2022/10/13 05:25:08;;;;;;;;;;;10.70;99.90;;;;;;5085471;28;20231;-70
2022/10/13 05:27:33;;;;;;;;;;;10.70;99.90;;;;;;5084870;28;19923;-70
2022/10/13 05:29:59;;;;;;;;;;;10.70;99.90;;;;;;5085513;28;19946;-71
2022/10/13 05:32:25;;;;;;;;;;;10.70;99.90;;;;;;5085222;28;19971;-71
2022/10/13 05:34:51;;;;;;;;;;;10.70;99.90;;;;;;5084729;28;19912;-71
2022/10/13 05:37:17;;;;;;;;;;;10.70;99.90;;;;;;5084229;28;19912;-71
2022/10/13 05:39:43;;;;;;;;;;;10.70;99.90;;;;;;5084856;28;19944;-71
2022/10/13 05:42:09;;;;;;;;;;;10.70;99.90;;;;;;5084855;28;19915;-71
2022/10/13 05:44:36;;;;;;;;;;;10.70;99.90;;;;;;5085166;28;19908;-71
2022/10/13 05:47:02;;;;;;;;;;;10.70;99.90;;;;;;5084424;28;19912;-71
2022/10/13 05:49:28;;;;;;;;;;;10.80;99.90;;;;;;5085114;28;19915;-71
2022/10/13 05:51:55;;;;;;;;;;;10.90;99.90;;;;;;5083153;28;19916;-72
2022/10/13 05:54:32;;;;;;;;;;;10.90;99.90;;;;;;5083466;28;20088;-71
2022/10/13 05:57:14;;;;;;;;;;;11.00;99.90;;;;;;5068175;28;19959;-70
2022/10/13 05:59:46;;;;;;;;;;;10.90;99.90;;;;;;5080964;28;19982;-72
2022/10/13 06:02:13;;;;;;;;;;;10.80;99.90;;;;;;5083501;28;19921;-72
2022/10/13 06:04:41;;;;;;;;;;;10.80;99.90;;;;;;5079643;28;19942;-72
2022/10/13 06:07:07;;;;;;;;;;;10.90;99.90;;;;;;5082080;28;19954;-72
2022/10/13 06:09:33;;;;;;;;;;;10.90;99.90;;;;;;5083420;28;19920;-71
2022/10/13 06:11:59;;;;;;;;;;;10.90;99.90;;;;;;5083226;28;19912;-72
2022/10/13 06:14:25;;;;;;;;;;;10.90;99.90;;;;;;5084483;28;19930;-72
2022/10/13 06:16:50;;;;;;;;;;;10.90;99.90;;;;;;5084155;28;19915;-72
2022/10/13 06:19:16;;;;;;;;;;;10.90;99.90;;;;;;5084325;28;19946;-73
2022/10/13 06:21:42;;;;;;;;;;;11.00;99.90;;;;;;5083747;28;19919;-72
2022/10/13 06:24:07;;;;;;;;;;;11.00;99.90;;;;;;5084352;28;19909;-72
2022/10/13 06:26:33;;;;;;;;;;;11.00;99.90;;;;;;5084106;28;19942;-72
2022/10/13 06:28:59;;;;;;;;;;;11.00;99.90;;;;;;5083024;28;20124;-72
2022/10/13 06:31:24;;;;;;;;;;;11.00;99.90;;;;;;5084436;28;19931;-72
2022/10/13 06:33:50;;;;;;;;;;;11.10;99.90;;;;;;5082250;28;19908;-77
2022/10/13 06:36:16;;;;;;;;;;;11.10;99.90;;;;;;5078724;28;19915;-78
2022/10/13 06:38:42;;;;;;;;;;;11.10;99.90;;;;;;5079049;28;19916;-76
2022/10/13 06:41:07;;;;;;;;;;;11.10;99.90;;;;;;5083924;28;19912;-72
2022/10/13 06:43:33;;;;;;;;;;;11.10;99.90;;;;;;5083853;28;20123;-72
2022/10/13 06:45:59;;;;;;;;;;;11.10;99.90;;;;;;5083656;28;19908;-72
2022/10/13 06:48:26;;;;;;;;;;;11.00;99.90;;;;;;5082316;28;19912;-72
2022/10/13 06:50:51;;;;;;;;;;;11.00;99.90;;;;;;5082772;28;19946;-77
2022/10/13 06:53:17;;;;;;;;;;;11.00;99.90;;;;;;5084379;28;19909;-78
2022/10/13 06:55:43;;;;;;;;;;;11.00;99.90;;;;;;5084104;28;20080;-78
2022/10/13 06:58:09;;;;;;;;;;;11.00;99.90;;;;;;5084466;28;19966;-76
2022/10/13 07:00:36;;;;;;;;;;;11.10;99.90;;;;;;5048586;28;19955;-75
2022/10/13 07:03:02;;;;;;;;;;;11.10;99.90;;;;;;5082610;28;20182;-76
2022/10/13 07:05:27;;;;;;;;;;;11.10;99.90;;;;;;5083441;28;19908;-75
2022/10/13 07:07:53;;;;;;;;;;;11.10;99.90;;;;;;5083501;28;19916;-79
2022/10/13 07:10:19;;;;;;;;;;;11.20;99.90;;;;;;5084983;28;20107;-76
2022/10/13 07:12:45;;;;;;;;;;;11.20;99.90;;;;;;5082347;28;19908;-76
2022/10/13 07:15:10;;;;;;;;;;;11.20;99.90;;;;;;5083966;28;19923;-77
2022/10/13 07:17:36;;;;;;;;;;;11.30;99.90;;;;;;5085444;28;19939;-85
2022/10/13 07:20:03;;;;;;;;;;;11.30;99.90;;;;;;5091113;28;19934;-80
2022/10/13 07:22:30;;;;;;;;;;;11.30;99.90;;;;;;5082748;28;20376;-70
2022/10/13 07:24:56;;;;;;;;;;;11.30;99.90;;;;;;5083013;28;19912;-72
2022/10/13 07:27:22;;;;;;;;;;;11.30;99.90;;;;;;5082618;28;19979;-71
2022/10/13 07:29:48;;;;;;;;;;;11.30;99.90;;;;;;5081913;28;20369;-72
2022/10/13 07:32:13;;;;;;;;;;;11.30;99.90;;;;;;5083045;28;19916;-71
2022/10/13 07:34:39;;;;;;;;;;;11.40;99.90;;;;;;5082935;28;20143;-71
2022/10/13 07:37:05;;;;;;;;;;;11.30;99.90;;;;;;5081720;28;19912;-72
2022/10/13 07:39:30;;;;;;;;;;;11.40;99.90;;;;;;5082811;28;19908;-71
2022/10/13 07:41:56;;;;;;;;;;;11.40;99.90;;;;;;5082868;28;19908;-71
2022/10/13 07:44:22;;;;;;;;;;;11.40;99.90;;;;;;5082780;28;20333;-71
2022/10/13 07:46:47;;;;;;;;;;;11.40;99.90;;;;;;5082601;28;19912;-71
2022/10/13 07:49:13;;;;;;;;;;;11.40;99.90;;;;;;5082523;28;19922;-71
2022/10/13 07:51:39;;;;;;;;;;;11.40;99.90;;;;;;5081950;28;19909;-71
2022/10/13 07:54:04;;;;;;;;;;;11.30;99.90;;;;;;5082408;28;19909;-72
2022/10/13 07:56:30;;;;;;;;;;;11.30;99.90;;;;;;5082431;28;19908;-72
2022/10/13 07:58:56;;;;;;;;;;;11.30;99.90;;;;;;5082609;28;19975;-71
2022/10/13 08:01:22;;;;;;;;;;;11.30;99.90;;;;;;5082351;28;20305;-71
2022/10/13 08:03:47;;;;;;;;;;;11.30;99.90;;;;;;5082822;28;19909;-71
2022/10/13 08:06:13;;;;;;;;;;;11.30;99.90;;;;;;5081313;28;20211;-71
2022/10/13 08:08:39;;;;;;;;;;;11.40;99.90;;;;;;5081291;28;19948;-71
2022/10/13 08:11:07;;;;;;;;;;;11.50;99.90;;;;;;5082582;28;20000;-71
2022/10/13 08:13:33;;;;;;;;;;;11.50;99.90;;;;;;5064706;28;19930;-72
2022/10/13 08:15:59;;;;;;;;;;;11.60;99.90;;;;;;5082248;28;19916;-71
2022/10/13 08:18:25;;;;;;;;;;;11.60;99.90;;;;;;5082360;28;19908;-71
2022/10/13 08:20:50;;;;;;;;;;;11.70;99.90;;;;;;5082376;28;19995;-70
2022/10/13 08:23:16;;;;;;;;;;;11.80;99.90;;;;;;5082393;28;19919;-72
2022/10/13 08:25:42;;;;;;;;;;;11.80;99.90;;;;;;5082602;28;19982;-72
2022/10/13 08:28:22;;;;;;;;;;;11.80;99.90;;;;;;5081150;28;20146;-71
2022/10/13 08:30:49;;;;;;;;;;;11.80;99.90;;;;;;5080456;28;20115;-71
2022/10/13 08:33:14;;;;;;;;;;;11.80;99.90;;;;;;5082081;28;19915;-71
2022/10/13 08:35:41;;;;;;;;;;;11.80;99.90;;;;;;5078210;28;19912;-71
2022/10/13 08:38:07;;;;;;;;;;;11.90;99.90;;;;;;5081147;28;19935;-71
2022/10/13 08:40:33;;;;;;;;;;;11.90;99.90;;;;;;5082199;28;20203;-71
2022/10/13 08:42:58;;;;;;;;;;;11.90;99.90;;;;;;5081259;28;19917;-71
2022/10/13 08:45:26;;;;;;;;;;;11.90;99.90;;;;;;5081212;28;19931;-71
2022/10/13 08:48:02;;;;;;;;;;;12.00;99.90;;;;;;5080818;28;20014;-71
2022/10/13 08:50:30;;;;;;;;;;;12.00;99.90;;;;;;5068354;28;19917;-71
2022/10/13 08:53:01;;;;;;;;;;;11.90;99.90;;;;;;5068182;28;19915;-71
2022/10/13 08:55:32;;;;;;;;;;;11.90;99.90;;;;;;5085001;28;19916;-71
2022/10/13 08:57:58;;;;;;;;;;;11.80;99.90;;;;;;5085716;28;19916;-71
2022/10/13 09:00:24;;;;;;;;;;;11.80;99.90;;;;;;5049930;28;19920;-71
2022/10/13 09:02:49;;;;;;;;;;;11.80;99.90;;;;;;5085586;28;19909;-71
2022/10/13 09:05:23;;;;;;;;;;;11.90;99.90;;;;;;5085551;28;20219;-71
2022/10/13 09:07:49;;;;;;;;;;;11.90;99.90;;;;;;5084055;28;19975;-71
2022/10/13 09:10:17;;;;;;;;;;;11.90;99.90;;;;;;5067977;28;20100;-71
2022/10/13 09:12:43;;;;;;;;;;;11.90;99.90;;;;;;5085667;28;20225;-70
2022/10/13 09:15:10;;;;;;;;;;;12.00;99.90;;;;;;5085150;28;19917;-71
2022/10/13 09:17:36;;;;;;;;;;;11.90;99.90;;;;;;5067508;28;20170;-71
2022/10/13 09:20:20;;;;;;;;;;;12.00;99.90;;;;;;5085471;28;20199;-71
2022/10/13 09:23:13;;;;;;;;;;;12.00;99.90;;;;;;5084115;28;19908;-71
2022/10/13 09:25:43;;;;;;;;;;;12.00;99.90;;;;;;5085822;28;19948;-71
2022/10/13 09:28:21;;;;;;;;;;;12.10;99.90;;;;;;5083633;28;19923;-71
2022/10/13 09:30:46;;;;;;;;;;;12.10;99.90;;;;;;5085320;28;19908;-71
2022/10/13 09:33:12;;;;;;;;;;;12.30;99.90;;;;;;5085251;28;20142;-71
2022/10/13 09:35:42;;;;;;;;;;;12.40;99.90;;;;;;5084876;28;19916;-71
2022/10/13 09:38:14;;;;;;;;;;;12.50;99.90;;;;;;5083476;28;19920;-71
2022/10/13 09:40:40;;;;;;;;;;;12.50;99.90;;;;;;5084094;28;19959;-71
2022/10/13 09:43:24;;;;;;;;;;;12.60;99.90;;;;;;5085252;28;20123;-71
2022/10/13 09:45:50;;;;;;;;;;;12.70;99.90;;;;;;5084152;28;19918;-71
2022/10/13 09:48:20;;;;;;;;;;;12.80;99.90;;;;;;5083881;28;19908;-71
2022/10/13 09:50:50;;;;;;;;;;;12.80;99.90;;;;;;5084061;28;19915;-71
2022/10/13 09:53:25;;;;;;;;;;;12.80;99.90;;;;;;5082914;28;20014;-71
2022/10/13 09:56:22;;;;;;;;;;;12.70;99.90;;;;;;5083994;28;19908;-71
2022/10/13 09:59:03;;;;;;;;;;;12.80;99.90;;;;;;5075563;28;19921;-71
2022/10/13 10:01:32;;;;;;;;;;;12.80;99.90;;;;;;5083303;28;19912;-71
2022/10/13 10:04:09;;;;;;;;;;;12.90;99.90;;;;;;5066737;28;19909;-71
2022/10/13 10:06:35;;;;;;;;;;;12.80;99.90;;;;;;5083446;28;19915;-71
2022/10/13 10:09:26;;;;;;;;;;;12.80;99.90;;;;;;5066590;28;19908;-71
2022/10/13 10:11:52;;;;;;;;;;;12.70;99.90;;;;;;5069101;28;19908;-71
2022/10/13 10:14:26;;;;;;;;;;;12.80;99.90;;;;;;5083659;28;19915;-71
2022/10/13 10:17:17;;;;;;;;;;;12.80;99.90;;;;;;5067123;28;19979;-71
2022/10/13 10:19:53;;;;;;;;;;;12.90;99.90;;;;;;5083492;28;19909;-71
2022/10/13 10:22:50;;;;;;;;;;;13.00;99.90;;;;;;5083209;28;20215;-71
2022/10/13 10:25:50;;;;;;;;;;;13.00;99.90;;;;;;5075997;28;19915;-71
2022/10/13 10:28:41;;;;;;;;;;;13.10;99.90;;;;;;5082427;28;19912;-71
2022/10/13 10:31:20;;;;;;;;;;;13.20;99.90;;;;;;5080489;28;19908;-71
2022/10/13 10:34:20;;;;;;;;;;;13.30;99.90;;;;;;5083260;28;19920;-71
2022/10/13 10:36:55;;;;;;;;;;;13.40;99.90;;;;;;5083621;28;19912;-71
2022/10/13 10:39:46;;;;;;;;;;;13.40;99.90;;;;;;5082688;28;19908;-71
2022/10/13 10:42:18;;;;;;;;;;;13.40;99.90;;;;;;5084041;28;20088;-71
2022/10/13 10:44:46;;;;;;;;;;;13.40;99.90;;;;;;5083921;28;19963;-71
2022/10/13 10:47:36;;;;;;;;;;;13.40;99.90;;;;;;5046046;28;19953;-71
2022/10/13 10:50:04;;;;;;;;;;;13.40;99.90;;;;;;5062829;28;19928;-71
2022/10/13 10:52:34;;;;;;;;;;;13.40;99.90;;;;;;5068462;28;19950;-71
2022/10/13 10:55:19;;;;;;;;;;;13.60;99.90;;;;;;5083840;28;20107;-71
2022/10/13 10:57:52;;;;;;;;;;;13.60;99.90;;;;;;5083182;28;20200;-71
2022/10/13 11:00:19;;;;;;;;;;;13.70;99.90;;;;;;5082434;28;19912;-71
2022/10/13 11:02:58;;;;;;;;;;;13.70;99.90;;;;;;5082421;28;19908;-71
2022/10/13 11:05:24;;;;;;;;;;;13.70;99.90;;;;;;5082386;28;20245;-71
2022/10/13 11:07:49;;;;;;;;;;;13.70;99.90;;;;;;5082889;28;19912;-71
2022/10/13 11:10:20;;;;;;;;;;;13.70;99.90;;;;;;5083204;28;19912;-71
2022/10/13 11:13:06;;;;;;;;;;;13.80;99.90;;;;;;5065080;28;19908;-71
2022/10/13 11:15:42;;;;;;;;;;;13.90;99.90;;;;;;5082332;28;20080;-71
2022/10/13 11:18:45;;;;;;;;;;;14.00;99.90;;;;;;5082966;28;19976;-71
2022/10/13 11:21:10;;;;;;;;;;;14.10;99.90;;;;;;5082891;28;19912;-71
2022/10/13 11:23:36;;;;;;;;;;;14.20;99.90;;;;;;5081787;28;19998;-71
2022/10/13 11:26:18;;;;;;;;;;;14.20;99.90;;;;;;5065042;28;19916;-72
2022/10/13 11:28:44;;;;;;;;;;;14.30;99.90;;;;;;5083152;28;20105;-71
2022/10/13 11:31:12;;;;;;;;;;;14.40;99.90;;;;;;5082935;28;19915;-71
2022/10/13 11:33:38;;;;;;;;;;;14.30;99.90;;;;;;5082983;28;20032;-71
2022/10/13 11:36:28;;;;;;;;;;;14.30;99.90;;;;;;5082693;28;20207;-71
2022/10/13 11:39:25;;;;;;;;;;;14.40;99.90;;;;;;5082526;28;19921;-71
2022/10/13 11:41:57;;;;;;;;;;;14.40;99.90;;;;;;5081861;28;20197;-71
2022/10/13 11:44:51;;;;;;;;;;;14.50;99.90;;;;;;5065593;28;19932;-71
2022/10/13 11:47:25;;;;;;;;;;;14.50;99.90;;;;;;5082442;28;20195;-71
2022/10/13 11:50:13;;;;;;;;;;;14.60;99.90;;;;;;5082734;28;19908;-71
2022/10/13 11:53:00;;;;;;;;;;;14.60;99.90;;;;;;5082485;28;19943;-71
2022/10/13 11:55:26;;;;;;;;;;;14.60;99.90;;;;;;5082814;28;19954;-71
2022/10/13 11:58:06;;;;;;;;;;;14.60;99.90;;;;;;5082300;28;19912;-71
2022/10/13 12:00:32;;;;;;;;;;;14.50;99.90;;;;;;5082584;28;19920;-71
2022/10/13 12:02:58;;;;;;;;;;;14.40;99.90;;;;;;5064654;28;19926;-71
2022/10/13 12:05:27;;;;;;;;;;;14.40;99.90;;;;;;5082555;28;19916;-71
2022/10/13 12:07:55;;;;;;;;;;;14.40;99.90;;;;;;5082090;28;19979;-71
2022/10/13 12:10:29;;;;;;;;;;;14.40;99.90;;;;;;5082458;28;19908;-71
2022/10/13 12:12:55;;;;;;;;;;;14.30;99.90;;;;;;5081375;28;19916;-71
2022/10/13 12:15:43;;;;;;;;;;;14.30;99.90;;;;;;5081292;28;20258;-71
2022/10/13 12:18:23;;;;;;;;;;;14.30;99.90;;;;;;5081280;28;19931;-71
2022/10/13 12:20:55;;;;;;;;;;;14.30;99.90;;;;;;5082445;28;19987;-71
2022/10/13 12:23:21;;;;;;;;;;;14.40;99.90;;;;;;5083846;28;20014;-71
2022/10/13 12:25:47;;;;;;;;;;;14.40;99.90;;;;;;5089219;28;19922;-71
2022/10/13 12:28:17;;;;;;;;;;;14.40;99.90;;;;;;5071059;28;20235;-70
2022/10/13 12:30:50;;;;;;;;;;;14.50;99.90;;;;;;5088057;28;19916;-71
2022/10/13 12:33:34;;;;;;;;;;;14.40;99.90;;;;;;5071946;28;19908;-71
2022/10/13 12:36:33;;;;;;;;;;;14.50;99.90;;;;;;5088936;28;19908;-71
2022/10/13 12:39:09;;;;;;;;;;;14.50;99.90;;;;;;5065408;28;19920;-71
2022/10/13 12:41:36;;;;;;;;;;;14.50;99.90;;;;;;5071676;28;19913;-71
2022/10/13 12:44:02;;;;;;;;;;;14.60;99.90;;;;;;5070959;28;20115;-71
2022/10/13 12:46:38;;;;;;;;;;;14.60;99.90;;;;;;5087554;28;19908;-71
2022/10/13 12:49:12;;;;;;;;;;;14.60;99.90;;;;;;5088912;28;19939;-71
2022/10/13 12:51:38;;;;;;;;;;;14.60;99.90;;;;;;5087766;28;19917;-71
2022/10/13 12:54:08;;;;;;;;;;;14.60;99.90;;;;;;5086849;28;19987;-71
2022/10/13 12:56:34;;;;;;;;;;;14.60;99.90;;;;;;5070743;28;19927;-71
2022/10/13 12:58:59;;;;;;;;;;;14.60;99.90;;;;;;5088520;28;19930;-71
2022/10/13 13:01:30;;;;;;;;;;;14.70;99.90;;;;;;5087627;28;19948;-71
2022/10/13 13:04:00;;;;;;;;;;;14.80;99.90;;;;;;5071034;28;19947;-71
2022/10/13 13:06:31;;;;;;;;;;;14.80;99.90;;;;;;5087449;28;19943;-71
2022/10/13 13:09:23;;;;;;;;;;;14.80;99.90;;;;;;5088386;28;20195;-71
2022/10/13 13:12:04;;;;;;;;;;;14.80;99.90;;;;;;5086109;28;20259;-71
2022/10/13 13:14:36;;;;;;;;;;;14.80;99.90;;;;;;5088521;28;19908;-71
2022/10/13 13:17:06;;;;;;;;;;;14.80;99.90;;;;;;5088289;28;19908;-71
2022/10/13 13:19:33;;;;;;;;;;;14.80;99.90;;;;;;5088509;28;19908;-71
2022/10/13 13:21:58;;;;;;;;;;;14.90;99.90;;;;;;5088465;28;19943;-71
2022/10/13 13:24:24;;;;;;;;;;;14.90;99.90;;;;;;5088239;28;19908;-71
2022/10/13 13:26:50;;;;;;;;;;;15.00;99.90;;;;;;5088051;28;19909;-71
2022/10/13 13:29:16;;;;;;;;;;;15.00;99.90;;;;;;5088508;28;19914;-71
2022/10/13 13:31:41;;;;;;;;;;;15.00;99.90;;;;;;5088347;28;20104;-71
2022/10/13 13:34:07;;;;;;;;;;;15.10;99.90;;;;;;5088378;28;19908;-71
2022/10/13 13:36:33;;;;;;;;;;;15.20;99.90;;;;;;5084297;28;19917;-71
2022/10/13 13:38:58;;;;;;;;;;;15.20;99.90;;;;;;5084842;28;19921;-71
2022/10/13 13:41:26;;;;;;;;;;;15.20;99.90;;;;;;5085136;28;19912;-71
2022/10/13 13:43:52;;;;;;;;;;;15.30;99.90;;;;;;5085142;28;19946;-71
2022/10/13 13:46:22;;;;;;;;;;;15.30;99.90;;;;;;5084711;28;20162;-71
2022/10/13 13:48:48;;;;;;;;;;;15.20;99.90;;;;;;5085000;28;20553;-71
2022/10/13 13:51:14;;;;;;;;;;;15.20;99.90;;;;;;5085034;28;19916;-71
2022/10/13 13:53:39;;;;;;;;;;;15.20;99.90;;;;;;5085063;28;19939;-71
2022/10/13 13:56:09;;;;;;;;;;;15.20;99.90;;;;;;5084770;28;19947;-71
2022/10/13 13:58:35;;;;;;;;;;;15.10;99.90;;;;;;5067341;28;19936;-71
2022/10/13 14:01:01;;;;;;;;;;;15.20;99.90;;;;;;5084698;28;20088;-71
2022/10/13 14:03:26;;;;;;;;;;;15.10;99.90;;;;;;5084782;28;19979;-71
2022/10/13 14:05:52;;;;;;;;;;;15.10;99.90;;;;;;5084722;28;19908;-71
2022/10/13 14:08:21;;;;;;;;;;;15.00;99.90;;;;;;5084273;28;20223;-71
2022/10/13 14:10:47;;;;;;;;;;;15.00;99.90;;;;;;5084482;28;19939;-71
2022/10/13 14:13:12;;;;;;;;;;;15.00;99.90;;;;;;5084572;28;19908;-71
2022/10/13 14:15:38;;;;;;;;;;;15.00;99.90;;;;;;5084550;28;19916;-70
2022/10/13 14:18:03;;;;;;;;;;;15.00;99.90;;;;;;5086140;28;19916;-71
2022/10/13 14:20:29;;;;;;;;;;;14.90;99.90;;;;;;5084391;28;19916;-70
2022/10/13 14:22:57;;;;;;;;;;;14.90;99.90;;;;;;5084331;28;20218;-69
2022/10/13 14:25:25;;;;;;;;;;;14.90;99.90;;;;;;5084151;28;19909;-70
2022/10/13 14:27:51;;;;;;;;;;;14.90;99.90;;;;;;5083956;28;19975;-70
2022/10/13 14:30:19;;;;;;;;;;;14.90;99.90;;;;;;5084157;28;19908;-70